Time;durP1;ratioP1;P1;durP2;ratioP2;P2;SDS_P1;SDS_P2;PMS_P1;PMS_P2;Temp;Humidity;BMP_temperature;BMP_pressure;BME280_temperature;BME280_humidity;BME280_pressure;Samples;Min_cycle;Max_cycle;Signal;HPM_P1;HPM_P2
2022/05/31 00:00:44;;;;;;;2.07;1.63;;;9.90;99.90;;;;;;4986100;28;20208;-80
2022/05/31 00:03:11;;;;;;;2.27;1.50;;;9.90;99.90;;;;;;4994238;28;20204;-80
2022/05/31 00:05:39;;;;;;;2.60;1.77;;;9.90;99.90;;;;;;4990476;28;20208;-81
2022/05/31 00:08:07;;;;;;;2.33;1.30;;;9.90;99.90;;;;;;4989101;28;20208;-81
2022/05/31 00:10:34;;;;;;;1.37;1.20;;;9.90;99.90;;;;;;4989786;28;20502;-82
2022/05/31 00:13:01;;;;;;;1.23;1.13;;;9.80;99.90;;;;;;4986813;28;20816;-81
2022/05/31 00:15:28;;;;;;;1.97;1.27;;;9.80;99.90;;;;;;4969399;28;20212;-79
2022/05/31 00:17:55;;;;;;;1.90;1.50;;;9.80;99.90;;;;;;4970237;28;20216;-81
2022/05/31 00:20:22;;;;;;;1.93;1.57;;;9.80;99.90;;;;;;4969733;28;20200;-81
2022/05/31 00:22:51;;;;;;;2.20;1.80;;;9.80;99.90;;;;;;4989075;28;20314;-80
2022/05/31 00:25:19;;;;;;;2.83;1.60;;;9.80;99.90;;;;;;4989311;28;20223;-78
2022/05/31 00:27:46;;;;;;;1.97;1.70;;;9.80;99.90;;;;;;4988987;28;20203;-81
2022/05/31 00:30:15;;;;;;;2.60;1.60;;;9.80;99.90;;;;;;4986899;28;20836;-81
2022/05/31 00:32:48;;;;;;;3.17;1.70;;;9.80;99.90;;;;;;4990483;28;20232;-81
2022/05/31 00:35:19;;;;;;;1.50;1.40;;;9.70;99.90;;;;;;4980840;28;20251;-81
2022/05/31 00:37:46;;;;;;;2.47;1.57;;;9.70;99.90;;;;;;4967903;28;20204;-80
2022/05/31 00:40:17;;;;;;;2.90;1.70;;;9.70;99.90;;;;;;4968562;28;20208;-80
2022/05/31 00:42:49;;;;;;;2.90;1.67;;;9.70;99.90;;;;;;4968833;28;20499;-81
2022/05/31 00:45:16;;;;;;;4.03;1.97;;;9.70;99.90;;;;;;4968613;28;20205;-80
2022/05/31 00:47:44;;;;;;;3.10;2.07;;;9.70;99.90;;;;;;4970199;28;20593;-80
2022/05/31 00:50:14;;;;;;;3.13;1.50;;;9.70;99.90;;;;;;4968192;28;20992;-80
2022/05/31 00:52:46;;;;;;;2.47;1.60;;;9.60;99.90;;;;;;4968996;28;20240;-79
2022/05/31 00:55:20;;;;;;;2.23;1.50;;;9.60;99.90;;;;;;4968739;28;20236;-79
2022/05/31 00:57:53;;;;;;;3.13;1.77;;;9.60;99.90;;;;;;4968792;28;20225;-81
2022/05/31 01:00:20;;;;;;;1.83;1.67;;;9.60;99.90;;;;;;4968767;28;20514;-79
2022/05/31 01:02:49;;;;;;;3.07;2.13;;;9.60;99.90;;;;;;4969147;28;20201;-79
2022/05/31 01:05:17;;;;;;;2.33;2.13;;;9.50;99.90;;;;;;4967680;28;20583;-78
2022/05/31 01:07:43;;;;;;;2.03;1.70;;;9.50;99.90;;;;;;4968688;28;20204;-79
2022/05/31 01:10:12;;;;;;;2.07;1.57;;;9.50;99.90;;;;;;4968407;28;20208;-78
2022/05/31 01:12:42;;;;;;;2.87;1.63;;;9.50;99.90;;;;;;4968312;28;20228;-79
2022/05/31 01:15:10;;;;;;;1.77;1.40;;;9.40;99.90;;;;;;4968597;28;20217;-80
2022/05/31 01:17:38;;;;;;;2.57;1.70;;;9.40;99.90;;;;;;4968932;28;20197;-79
2022/05/31 01:20:08;;;;;;;1.80;1.40;;;9.40;99.90;;;;;;4967956;28;20207;-78
2022/05/31 01:22:39;;;;;;;2.93;1.60;;;9.40;99.90;;;;;;4968507;28;20205;-80
2022/05/31 01:25:18;;;;;;;1.43;1.30;;;9.40;99.90;;;;;;4967595;28;20649;-79
2022/05/31 01:27:51;;;;;;;2.23;2.03;;;9.30;99.90;;;;;;4968188;28;20204;-79
2022/05/31 01:30:19;;;;;;;2.80;2.47;;;9.30;99.90;;;;;;4967681;28;20204;-80
2022/05/31 01:32:49;;;;;;;2.40;1.80;;;9.30;99.90;;;;;;4968218;28;20232;-79
2022/05/31 01:35:24;;;;;;;2.20;2.00;;;9.30;99.90;;;;;;4968673;28;20572;-79
2022/05/31 01:37:56;;;;;;;2.63;2.10;;;9.30;99.90;;;;;;4987698;28;20225;-80
2022/05/31 01:40:31;;;;;;;3.40;2.40;;;9.30;99.90;;;;;;4987398;28;20211;-80
2022/05/31 01:42:58;;;;;;;2.57;2.37;;;9.20;99.90;;;;;;4987873;28;20212;-79
2022/05/31 01:45:29;;;;;;;2.37;2.13;;;9.20;99.90;;;;;;4977176;28;20504;-80
2022/05/31 01:47:59;;;;;;;2.87;2.67;;;9.20;99.90;;;;;;4967705;28;20208;-81
2022/05/31 01:50:28;;;;;;;2.80;2.53;;;9.20;99.90;;;;;;4967935;28;20962;-79
2022/05/31 01:52:55;;;;;;;3.77;2.80;;;9.20;99.90;;;;;;4968164;28;20244;-80
2022/05/31 01:55:22;;;;;;;3.13;2.80;;;9.10;99.90;;;;;;4968109;28;20217;-80
2022/05/31 01:57:53;;;;;;;4.07;3.67;;;9.10;99.90;;;;;;4968647;28;20205;-79
2022/05/31 02:00:21;;;;;;;3.50;3.20;;;9.10;99.90;;;;;;4967323;28;20212;-77
2022/05/31 02:02:52;;;;;;;4.00;3.27;;;9.10;99.90;;;;;;4970073;28;20204;-79
2022/05/31 02:05:20;;;;;;;5.27;4.03;;;9.10;99.90;;;;;;4984605;28;20596;-78
2022/05/31 02:07:55;;;;;;;4.53;3.80;;;9.10;99.90;;;;;;4987278;28;20204;-79
2022/05/31 02:10:21;;;;;;;3.90;3.23;;;9.10;99.90;;;;;;4988885;28;20203;-79
2022/05/31 02:12:49;;;;;;;3.90;3.50;;;9.10;99.90;;;;;;4982143;28;20311;-80
2022/05/31 02:15:16;;;;;;;5.33;4.07;;;9.00;99.90;;;;;;4972394;28;20763;-80
2022/05/31 02:17:43;;;;;;;5.87;3.97;;;9.00;99.90;;;;;;4977677;28;20204;-81
2022/05/31 02:20:11;;;;;;;4.87;3.93;;;9.00;99.90;;;;;;4979513;28;20243;-80
2022/05/31 02:22:38;;;;;;;4.87;4.37;;;9.00;99.90;;;;;;4975103;28;20211;-80
2022/05/31 02:25:07;;;;;;;5.50;4.20;;;9.00;99.90;;;;;;4974135;28;20244;-80
2022/05/31 02:27:34;;;;;;;6.73;5.27;;;9.00;99.90;;;;;;4969551;28;20232;-81
2022/05/31 02:30:03;;;;;;;5.47;4.80;;;9.00;99.90;;;;;;4968408;28;20553;-81
2022/05/31 02:32:30;;;;;;;7.13;4.40;;;9.00;99.90;;;;;;4968527;28;20248;-80
2022/05/31 02:34:57;;;;;;;4.47;4.00;;;9.00;99.90;;;;;;4968329;28;20196;-81
2022/05/31 02:37:24;;;;;;;4.83;4.10;;;9.00;99.90;;;;;;4968401;28;20215;-81
2022/05/31 02:39:51;;;;;;;4.97;4.47;;;9.00;99.90;;;;;;4968717;28;20208;-81
2022/05/31 02:42:19;;;;;;;5.37;4.27;;;9.00;99.90;;;;;;4972569;28;20212;-81
2022/05/31 02:44:47;;;;;;;5.33;4.70;;;9.00;99.90;;;;;;4972875;28;20497;-81
2022/05/31 02:47:14;;;;;;;5.37;4.50;;;9.00;99.90;;;;;;4971762;28;20491;-80
2022/05/31 02:49:41;;;;;;;4.50;4.07;;;9.00;99.90;;;;;;4971827;28;20201;-80
2022/05/31 02:52:08;;;;;;;6.27;4.60;;;9.00;99.90;;;;;;4972807;28;20247;-81
2022/05/31 02:54:35;;;;;;;4.90;4.23;;;9.00;99.90;;;;;;4972427;28;20219;-80
2022/05/31 02:57:03;;;;;;;5.87;4.20;;;9.00;99.90;;;;;;4972114;28;20211;-80
2022/05/31 02:59:31;;;;;;;4.37;3.93;;;9.00;99.90;;;;;;4972118;28;20228;-80
2022/05/31 03:01:58;;;;;;;5.30;4.00;;;9.00;99.90;;;;;;4976839;28;20215;-80
2022/05/31 03:04:25;;;;;;;5.53;4.17;;;9.00;99.90;;;;;;4991610;28;20235;-81
2022/05/31 03:06:52;;;;;;;6.13;4.60;;;8.90;99.90;;;;;;4985976;28;20200;-81
2022/05/31 03:09:19;;;;;;;7.60;4.67;;;8.90;99.90;;;;;;4971826;28;20212;-78
2022/05/31 03:11:50;;;;;;;4.40;4.00;;;8.90;99.90;;;;;;4970811;28;20635;-79
2022/05/31 03:14:21;;;;;;;5.33;4.00;;;8.90;99.90;;;;;;4971531;28;20220;-80
2022/05/31 03:16:58;;;;;;;3.90;3.50;;;8.90;99.90;;;;;;4972174;28;20201;-79
2022/05/31 03:19:28;;;;;;;4.90;4.27;;;8.80;99.90;;;;;;4970506;28;20204;-79
2022/05/31 03:21:59;;;;;;;5.03;3.50;;;8.80;99.90;;;;;;4970458;28;20212;-78
2022/05/31 03:24:33;;;;;;;3.10;2.90;;;8.80;99.90;;;;;;4989639;28;20231;-78
2022/05/31 03:27:02;;;;;;;4.00;2.90;;;8.80;99.90;;;;;;4978148;28;20208;-81
2022/05/31 03:29:30;;;;;;;4.20;3.60;;;8.80;99.90;;;;;;4970761;28;20199;-80
2022/05/31 03:31:58;;;;;;;4.90;3.77;;;8.80;99.90;;;;;;4970554;28;20236;-81
2022/05/31 03:34:25;;;;;;;3.77;3.37;;;8.80;99.90;;;;;;4970381;28;20201;-79
2022/05/31 03:36:52;;;;;;;5.50;4.00;;;8.80;99.90;;;;;;4970523;28;20862;-81
2022/05/31 03:39:19;;;;;;;5.17;3.97;;;8.80;99.90;;;;;;4970698;28;20216;-81
2022/05/31 03:41:46;;;;;;;4.10;3.63;;;8.70;99.90;;;;;;4971242;28;20208;-79
2022/05/31 03:44:12;;;;;;;4.37;3.97;;;8.80;99.90;;;;;;4999389;23;20541;-81
2022/05/31 03:46:39;;;;;;;4.30;3.90;;;8.80;99.90;;;;;;5028215;28;20245;-81
2022/05/31 03:49:07;;;;;;;3.43;3.13;;;8.80;99.90;;;;;;5029388;28;20585;-81
2022/05/31 03:51:35;;;;;;;4.00;3.60;;;8.80;99.90;;;;;;5028707;28;20202;-80
2022/05/31 03:54:01;;;;;;;3.70;3.40;;;8.80;99.90;;;;;;5028030;28;20202;-80
2022/05/31 03:56:28;;;;;;;3.93;3.57;;;8.80;99.90;;;;;;5028808;28;20206;-80
2022/05/31 03:58:55;;;;;;;4.77;3.80;;;8.80;99.90;;;;;;5029502;28;20237;-79
2022/05/31 04:01:22;;;;;;;5.37;3.93;;;8.80;99.90;;;;;;5027821;28;20761;-80
2022/05/31 04:03:49;;;;;;;3.77;3.47;;;8.90;99.90;;;;;;5030603;28;20206;-79
2022/05/31 04:06:17;;;;;;;4.30;3.33;;;8.90;99.90;;;;;;5028451;28;20213;-80
2022/05/31 04:08:44;;;;;;;4.00;3.60;;;8.90;99.90;;;;;;5028130;28;20211;-80
2022/05/31 04:11:10;;;;;;;3.80;3.50;;;9.00;99.90;;;;;;5028391;28;20206;-81
2022/05/31 04:13:38;;;;;;;3.50;3.20;;;9.00;99.90;;;;;;5028913;28;20234;-82
2022/05/31 04:16:10;;;;;;;3.57;3.27;;;9.00;99.90;;;;;;5027677;28;20906;-82
2022/05/31 04:18:37;;;;;;;3.63;3.33;;;9.10;99.90;;;;;;5029356;28;20199;-80
2022/05/31 04:21:06;;;;;;;3.67;3.10;;;9.10;99.90;;;;;;5028723;28;20294;-81
2022/05/31 04:26:19;;;;;;;4.60;3.77;;;9.30;99.90;;;;;;5010572;28;20288;-80
2022/05/31 04:28:46;;;;;;;5.30;3.77;;;9.30;99.90;;;;;;5007968;28;20242;-81
2022/05/31 04:31:12;;;;;;;4.47;3.67;;;9.40;99.90;;;;;;5008777;28;20211;-81
2022/05/31 04:33:39;;;;;;;4.77;3.97;;;9.50;99.90;;;;;;5008181;28;20219;-80
2022/05/31 04:36:09;;;;;;;4.53;4.13;;;9.60;99.90;;;;;;5008191;28;20238;-79
2022/05/31 04:38:38;;;;;;;4.83;3.97;;;9.70;99.90;;;;;;5007706;28;20208;-79
2022/05/31 04:41:05;;;;;;;4.60;3.90;;;9.80;99.90;;;;;;5007530;28;20207;-80
2022/05/31 04:43:33;;;;;;;4.63;4.10;;;9.80;99.90;;;;;;5008052;28;20219;-79
2022/05/31 04:46:09;;;;;;;5.27;3.90;;;9.90;99.90;;;;;;5009290;28;20282;-77
2022/05/31 04:48:36;;;;;;;5.27;4.20;;;10.10;99.90;;;;;;5008270;28;20265;-81
2022/05/31 04:51:03;;;;;;;4.00;3.70;;;10.20;99.90;;;;;;5008420;28;20211;-81
2022/05/31 04:53:30;;;;;;;5.17;4.57;;;10.30;99.90;;;;;;5008238;28;20234;-81
2022/05/31 04:56:02;;;;;;;5.37;4.87;;;10.40;99.90;;;;;;5008870;28;20199;-80
2022/05/31 04:58:28;;;;;;;5.03;4.47;;;10.50;99.90;;;;;;5008137;28;20211;-80
2022/05/31 05:00:56;;;;;;;5.00;4.10;;;10.60;99.90;;;;;;5008743;28;20284;-78
2022/05/31 05:03:22;;;;;;;5.70;4.77;;;10.70;99.90;;;;;;5007143;28;20199;-81
2022/05/31 05:05:49;;;;;;;6.07;4.93;;;10.80;99.90;;;;;;5007654;28;20203;-81
2022/05/31 05:08:16;;;;;;;5.77;4.23;;;10.90;99.90;;;;;;5007586;28;20607;-80
2022/05/31 05:10:46;;;;;;;5.07;4.57;;;11.00;99.90;;;;;;5007784;28;20206;-79
2022/05/31 05:13:14;;;;;;;6.67;5.00;;;11.10;99.90;;;;;;5008021;28;20230;-81
2022/05/31 05:15:41;;;;;;;4.80;4.23;;;11.30;99.90;;;;;;5008081;28;20215;-81
2022/05/31 05:18:08;;;;;;;5.53;4.40;;;11.40;99.90;;;;;;5008279;28;20779;-81
2022/05/31 05:20:38;;;;;;;5.17;4.53;;;11.60;99.90;;;;;;5007508;28;20210;-82
2022/05/31 05:23:05;;;;;;;6.90;5.57;;;11.60;99.90;;;;;;5008349;28;20206;-82
2022/05/31 05:25:32;;;;;;;7.10;4.87;;;11.80;99.90;;;;;;5007104;28;20235;-81
2022/05/31 05:27:59;;;;;;;6.03;4.20;;;11.80;99.90;;;;;;5008054;28;20891;-81
2022/05/31 05:30:40;;;;;;;4.90;4.40;;;12.00;99.90;;;;;;5007970;28;20214;-81
2022/05/31 05:33:10;;;;;;;6.83;4.90;;;12.20;99.90;;;;;;5007188;28;20284;-80
2022/05/31 05:35:37;;;;;;;6.80;4.80;;;12.30;99.90;;;;;;5008305;28;20203;-81
2022/05/31 05:38:04;;;;;;;5.90;4.70;;;12.50;99.90;;;;;;5007855;28;20203;-82
2022/05/31 05:40:31;;;;;;;7.93;5.30;;;12.70;99.90;;;;;;5007552;28;20200;-81
2022/05/31 05:42:57;;;;;;;6.83;5.17;;;12.90;99.90;;;;;;5007458;28;20634;-81
2022/05/31 05:45:24;;;;;;;5.30;4.80;;;13.20;99.90;;;;;;5008348;28;20249;-81
2022/05/31 05:47:53;;;;;;;5.27;4.77;;;13.40;99.90;;;;;;5008205;28;20674;-81
2022/05/31 05:50:20;;;;;;;4.50;3.83;;;13.70;99.90;;;;;;5007892;28;20203;-81
2022/05/31 05:52:51;;;;;;;5.20;4.20;;;13.90;99.90;;;;;;5005752;28;20237;-81
2022/05/31 05:55:18;;;;;;;5.32;4.43;;;14.30;99.90;;;;;;5006506;28;20210;-80
2022/05/31 05:57:44;;;;;;;9.87;5.83;;;14.60;99.90;;;;;;5006629;28;20488;-79
2022/05/31 06:00:13;;;;;;;4.40;4.00;;;14.80;99.90;;;;;;5006822;28;20203;-81
2022/05/31 06:02:44;;;;;;;6.35;4.15;;;15.10;99.90;;;;;;5007220;28;20878;-79
2022/05/31 06:05:15;;;;;;;7.05;4.03;;;15.30;99.90;;;;;;5007736;28;20210;-79
2022/05/31 06:07:46;;;;;;;4.55;3.85;;;15.50;99.90;;;;;;5007326;28;20366;-83
2022/05/31 06:10:17;;;;;;;4.13;3.53;;;15.70;99.90;;;;;;5007116;28;20218;-83
2022/05/31 06:12:47;;;;;;;6.05;3.67;;;15.90;99.90;;;;;;5007711;28;20237;-82
2022/05/31 06:15:17;;;;;;;4.50;3.80;;;16.10;99.90;;;;;;5008941;28;20542;-80
2022/05/31 06:17:46;;;;;;;4.75;3.03;;;16.30;99.90;;;;;;5010814;28;20203;-83
2022/05/31 06:20:16;;;;;;;3.85;3.20;;;16.50;99.90;;;;;;5010631;28;20273;-82
2022/05/31 06:22:43;;;;;;;3.70;2.72;;;16.80;99.90;;;;;;5011049;28;20207;-81
2022/05/31 06:25:13;;;;;;;6.18;3.33;;;17.20;99.90;;;;;;5010834;28;20227;-82
2022/05/31 06:27:39;;;;;;;4.95;3.45;;;17.50;99.90;;;;;;5010114;28;20225;-83
2022/05/31 06:30:08;;;;;;;5.20;3.05;;;17.90;99.90;;;;;;5010811;28;20213;-82
2022/05/31 06:32:35;;;;;;;5.70;2.90;;;18.10;99.90;;;;;;5010714;28;20203;-82
2022/05/31 06:35:02;;;;;;;5.35;2.83;;;18.60;99.90;;;;;;5009262;28;20222;-81
2022/05/31 06:37:30;;;;;;;3.97;2.80;;;19.00;99.90;;;;;;5010218;28;20203;-81
2022/05/31 06:39:57;;;;;;;7.47;2.50;;;19.10;99.90;;;;;;5009342;28;20698;-84
2022/05/31 06:42:25;;;;;;;2.92;2.50;;;19.50;99.90;;;;;;5009871;28;20564;-82
2022/05/31 06:44:52;;;;;;;4.97;2.55;;;19.60;99.90;;;;;;5009914;28;20239;-83
2022/05/31 06:47:19;;;;;;;4.10;2.85;;;19.30;99.90;;;;;;5010243;28;20215;-82
2022/05/31 06:49:45;;;;;;;4.07;2.38;;;19.70;99.90;;;;;;5010087;28;20214;-82
2022/05/31 06:57:46;;;;;;;3.78;2.80;;;19.90;99.90;;;;;;5009674;28;20213;-84
2022/05/31 07:00:15;;;;;;;4.07;2.72;;;20.00;99.90;;;;;;5009825;28;20215;-85
2022/05/31 07:02:42;;;;;;;9.18;3.20;;;19.80;99.90;;;;;;5010455;28;20214;-80
2022/05/31 07:05:11;;;;;;;4.32;3.47;;;19.80;99.90;;;;;;5010233;28;20654;-81
2022/05/31 07:07:38;;;;;;;6.75;3.15;;;19.80;99.90;;;;;;5009759;28;20346;-82
2022/05/31 07:10:08;;;;;;;3.53;2.95;;;20.00;99.90;;;;;;5008625;28;20203;-80
2022/05/31 07:12:35;;;;;;;5.00;3.30;;;20.10;99.90;;;;;;5008922;28;20215;-80
2022/05/31 07:15:04;;;;;;;4.65;2.90;;;20.40;99.90;;;;;;5008531;28;20207;-81
2022/05/31 07:17:31;;;;;;;4.82;3.20;;;20.70;99.90;;;;;;5008036;28;20214;-80
2022/05/31 07:19:58;;;;;;;4.70;3.60;;;21.00;99.90;;;;;;5008708;28;20199;-81
2022/05/31 07:22:24;;;;;;;5.18;2.95;;;21.00;99.90;;;;;;5008900;28;20227;-81
2022/05/31 07:24:51;;;;;;;4.38;3.30;;;21.00;99.90;;;;;;5008247;28;20228;-81
2022/05/31 07:27:19;;;;;;;7.65;3.50;;;21.20;99.90;;;;;;5007967;28;20206;-81
2022/05/31 07:29:46;;;;;;;4.13;2.47;;;21.30;99.90;;;;;;5009376;28;20226;-82
2022/05/31 07:32:13;;;;;;;4.38;2.88;;;21.40;99.90;;;;;;5008175;28;20218;-82
2022/05/31 07:34:40;;;;;;;4.55;2.60;;;21.60;99.90;;;;;;5009619;28;20234;-81
2022/05/31 07:37:07;;;;;;;3.53;2.78;;;21.70;99.90;;;;;;5008784;28;20211;-81
2022/05/31 07:39:34;;;;;;;3.70;2.00;;;21.10;99.90;;;;;;5008576;28;20203;-81
2022/05/31 07:42:01;;;;;;;5.97;2.45;;;20.90;99.90;;;;;;5009408;28;20203;-82
2022/05/31 07:44:30;;;;;;;4.88;2.35;;;20.80;99.90;;;;;;5009504;28;20238;-80
2022/05/31 07:46:59;;;;;;;4.85;2.67;;;20.80;99.90;;;;;;5008451;28;20239;-81
2022/05/31 07:49:26;;;;;;;4.57;3.03;;;20.80;99.90;;;;;;5008987;28;20200;-81
2022/05/31 07:51:53;;;;;;;4.97;2.47;;;21.00;99.90;;;;;;5009274;28;20203;-81
2022/05/31 07:54:20;;;;;;;4.40;2.53;;;21.20;99.90;;;;;;5009174;28;20234;-80
2022/05/31 07:56:48;;;;;;;4.57;2.35;;;21.50;99.90;;;;;;5009451;28;20234;-81
2022/05/31 07:59:15;;;;;;;4.68;2.40;;;22.20;99.90;;;;;;5007867;28;20219;-80
2022/05/31 08:01:43;;;;;;;5.25;2.70;;;22.60;99.90;;;;;;5009287;28;20191;-81
2022/05/31 08:04:10;;;;;;;3.75;2.30;;;22.70;99.90;;;;;;5008722;28;20199;-82
2022/05/31 08:06:37;;;;;;;4.82;2.95;;;23.20;99.90;;;;;;5008593;28;20882;-80
2022/05/31 08:09:05;;;;;;;4.20;2.30;;;23.10;99.90;;;;;;5009128;28;20222;-81
2022/05/31 08:11:33;;;;;;;3.58;2.33;;;23.90;99.90;;;;;;5009613;28;20207;-80
2022/05/31 08:14:01;;;;;;;6.00;2.10;;;24.30;99.90;;;;;;4990345;28;20223;-81
2022/05/31 08:16:29;;;;;;;3.45;1.73;;;24.70;99.90;;;;;;5001417;28;20603;-81
2022/05/31 08:18:58;;;;;;;4.88;3.00;;;25.00;99.90;;;;;;5014643;28;20273;-81
2022/05/31 08:21:28;;;;;;;5.85;2.25;;;24.30;99.90;;;;;;5009834;28;20211;-82
2022/05/31 08:23:56;;;;;;;4.10;2.00;;;23.60;99.90;;;;;;4993853;28;20196;-79
2022/05/31 08:26:23;;;;;;;3.20;1.92;;;23.30;99.90;;;;;;5000757;28;20208;-80
2022/05/31 08:28:51;;;;;;;4.65;2.33;;;23.00;99.90;;;;;;5014809;28;20551;-82
2022/05/31 08:31:22;;;;;;;4.55;2.63;;;23.40;99.90;;;;;;5023677;28;20586;-81
2022/05/31 08:33:49;;;;;;;5.18;2.58;;;23.80;99.90;;;;;;5029040;28;20290;-81
2022/05/31 08:36:19;;;;;;;4.35;2.70;;;24.20;99.90;;;;;;5017249;28;20551;-79
2022/05/31 08:38:46;;;;;;;5.93;2.67;;;24.50;99.90;;;;;;5008475;28;20217;-83
2022/05/31 08:41:25;;;;;;;4.95;2.95;;;25.00;99.90;;;;;;5008544;28;20207;-81
2022/05/31 08:44:07;;;;;;;4.03;2.75;;;25.20;99.90;;;;;;5007636;28;20243;-82
2022/05/31 08:46:47;;;;;;;5.53;3.00;;;25.20;99.90;;;;;;5008586;28;20211;-81
2022/05/31 08:49:23;;;;;;;4.57;2.97;;;25.10;99.90;;;;;;5006017;28;20211;-80
2022/05/31 08:52:03;;;;;;;6.28;2.78;;;25.20;99.90;;;;;;5006782;28;20213;-81
2022/05/31 08:57:30;;;;;;;5.53;3.33;;;25.70;99.90;;;;;;5006236;28;20210;-82
2022/05/31 09:00:02;;;;;;;6.05;2.85;;;24.80;99.90;;;;;;5006702;28;20202;-82
2022/05/31 09:02:33;;;;;;;2.58;2.03;;;24.60;99.90;;;;;;5005519;28;20219;-81
2022/05/31 09:05:06;;;;;;;5.05;3.20;;;24.60;99.90;;;;;;5007120;28;20203;-82
2022/05/31 09:07:40;;;;;;;5.00;2.72;;;24.80;99.90;;;;;;5006229;28;20909;-79
2022/05/31 09:10:12;;;;;;;4.15;2.25;;;25.00;99.90;;;;;;5005971;28;20203;-79
2022/05/31 09:12:45;;;;;;;4.20;2.88;;;25.40;99.90;;;;;;5006844;28;20210;-78
2022/05/31 09:15:18;;;;;;;6.50;2.75;;;25.50;99.90;;;;;;5006017;28;20234;-79
2022/05/31 09:18:00;;;;;;;3.65;2.22;;;25.30;99.90;;;;;;5005978;28;20579;-79
2022/05/31 09:20:32;;;;;;;4.40;2.60;;;25.50;99.90;;;;;;5006619;28;20606;-79
2022/05/31 09:23:01;;;;;;;3.20;2.10;;;25.20;99.90;;;;;;5005537;28;20203;-79
2022/05/31 09:25:28;;;;;;;5.20;2.30;;;25.00;99.90;;;;;;5006101;28;20248;-79
2022/05/31 09:27:55;;;;;;;5.38;2.40;;;25.00;99.90;;;;;;5006770;28;20213;-79
2022/05/31 09:30:26;;;;;;;6.43;2.15;;;25.10;99.90;;;;;;5005370;28;20211;-78
2022/05/31 09:33:09;;;;;;;3.95;2.17;;;25.50;99.90;;;;;;5006685;28;20199;-79
2022/05/31 09:35:55;;;;;;;3.92;2.47;;;25.70;99.90;;;;;;4996042;23;20249;-79
2022/05/31 09:38:48;;;;;;;4.32;2.58;;;25.70;99.90;;;;;;4985975;28;20204;-79
2022/05/31 09:41:22;;;;;;;4.72;2.42;;;25.40;99.90;;;;;;4966931;28;20929;-80
2022/05/31 09:43:57;;;;;;;4.35;2.47;;;25.40;99.90;;;;;;4967254;28;20283;-79
2022/05/31 09:46:33;;;;;;;2.60;2.13;;;25.10;99.90;;;;;;4967750;28;20286;-80
2022/05/31 09:49:01;;;;;;;3.30;2.40;;;25.20;99.90;;;;;;4985943;28;20196;-79
2022/05/31 09:51:34;;;;;;;5.15;2.55;;;24.90;99.90;;;;;;4985862;28;20278;-80
2022/05/31 09:59:34;;;;;;;6.45;2.88;;;24.30;99.90;;;;;;4986466;28;20238;-80
2022/05/31 10:02:20;;;;;;;4.70;2.70;;;23.90;99.90;;;;;;4985375;28;20212;-79
2022/05/31 10:04:48;;;;;;;5.20;2.40;;;23.50;99.90;;;;;;4986382;28;20275;-79
2022/05/31 10:07:31;;;;;;;3.90;2.92;;;23.30;99.90;;;;;;4985393;28;20554;-79
2022/05/31 10:10:06;;;;;;;4.57;2.78;;;23.10;99.90;;;;;;4986058;28;20218;-79
2022/05/31 10:12:34;;;;;;;4.45;2.40;;;22.90;99.90;;;;;;4986189;28;20487;-80
2022/05/31 10:15:03;;;;;;;6.65;3.00;;;22.60;99.90;;;;;;4985328;28;20235;-78
2022/05/31 10:17:37;;;;;;;3.35;2.80;;;22.60;99.90;;;;;;4985951;28;20196;-78
2022/05/31 10:20:14;;;;;;;6.72;3.50;;;22.50;99.90;;;;;;4985587;28;20203;-80
2022/05/31 10:22:48;;;;;;;4.55;2.97;;;22.10;99.90;;;;;;4986917;28;20204;-79
2022/05/31 10:25:22;;;;;;;3.33;2.47;;;21.70;99.90;;;;;;4985767;28;20282;-79
2022/05/31 10:27:55;;;;;;;4.45;2.75;;;21.20;99.90;;;;;;4966561;28;20453;-78
2022/05/31 10:30:23;;;;;;;6.10;2.88;;;21.10;99.90;;;;;;4967002;28;20207;-80
2022/05/31 10:32:53;;;;;;;7.07;2.70;;;20.90;99.90;;;;;;4986088;28;20219;-80
2022/05/31 10:35:23;;;;;;;4.85;3.00;;;20.90;99.90;;;;;;4985433;28;20244;-80
2022/05/31 10:38:01;;;;;;;4.88;2.60;;;20.80;99.90;;;;;;4985734;28;20207;-80
2022/05/31 10:40:45;;;;;;;5.57;3.15;;;20.90;99.90;;;;;;4986342;28;20208;-79
2022/05/31 10:43:35;;;;;;;4.28;2.63;;;21.00;99.90;;;;;;4986395;28;20395;-78
2022/05/31 10:46:10;;;;;;;7.90;3.38;;;21.00;99.90;;;;;;4985964;28;20217;-78
2022/05/31 10:48:46;;;;;;;4.50;3.13;;;20.80;99.90;;;;;;4966070;28;20218;-80
2022/05/31 10:51:18;;;;;;;7.78;3.63;;;20.80;99.90;;;;;;4973821;28;20211;-79
2022/05/31 10:53:54;;;;;;;5.95;3.10;;;20.90;99.90;;;;;;4986144;28;20600;-80
2022/05/31 10:56:32;;;;;;;5.65;3.17;;;20.90;99.90;;;;;;4985027;28;20207;-80
2022/05/31 10:59:01;;;;;;;5.30;2.92;;;20.90;99.90;;;;;;4985999;28;20212;-79
2022/05/31 11:01:57;;;;;;;5.32;2.53;;;20.80;99.90;;;;;;4987240;28;20208;-80
2022/05/31 11:04:44;;;;;;;4.82;3.13;;;20.60;99.90;;;;;;4987451;28;20295;-79
2022/05/31 11:07:22;;;;;;;3.40;2.35;;;20.50;99.90;;;;;;4989622;28;20208;-80
2022/05/31 11:13:06;;;;;;;5.88;2.60;;;20.50;99.90;;;;;;4990275;28;20358;-82
2022/05/31 11:15:44;;;;;;;3.63;2.05;;;20.60;99.90;;;;;;4989870;28;20216;-79
2022/05/31 11:18:35;;;;;;;7.28;2.72;;;20.60;99.90;;;;;;4988600;28;20508;-79
2022/05/31 11:21:11;;;;;;;3.95;2.03;;;20.60;99.90;;;;;;4990219;28;20218;-81
2022/05/31 11:23:52;;;;;;;4.03;1.95;;;20.30;99.90;;;;;;4989423;28;20217;-80
2022/05/31 11:26:43;;;;;;;5.82;2.00;;;20.40;99.90;;;;;;4989373;28;20246;-81
2022/05/31 11:29:37;;;;;;;4.75;2.35;;;20.40;99.90;;;;;;4970617;28;20299;-80
2022/05/31 11:32:12;;;;;;;3.03;2.08;;;20.30;99.90;;;;;;4985732;28;20612;-80
2022/05/31 11:34:52;;;;;;;4.20;2.42;;;20.30;99.90;;;;;;4989277;28;20232;-81
2022/05/31 11:37:40;;;;;;;2.92;1.75;;;20.30;99.90;;;;;;4988420;28;20298;-81
2022/05/31 11:40:19;;;;;;;7.13;2.35;;;20.60;99.90;;;;;;4988964;28;20208;-81
2022/05/31 11:43:05;;;;;;;3.67;1.92;;;20.70;99.90;;;;;;4988307;28;20207;-80
2022/05/31 11:45:38;;;;;;;3.72;2.00;;;20.80;99.90;;;;;;4988683;28;20618;-81
2022/05/31 11:48:36;;;;;;;4.78;2.15;;;21.20;99.90;;;;;;4988654;28;20218;-80
2022/05/31 11:51:18;;;;;;;3.78;1.92;;;21.60;99.90;;;;;;4988364;28;20496;-80
2022/05/31 11:54:02;;;;;;;6.65;2.72;;;22.30;99.90;;;;;;4988879;28;20216;-80
2022/05/31 11:56:38;;;;;;;5.25;1.98;;;22.40;99.90;;;;;;4988660;28;20563;-80
2022/05/31 11:59:12;;;;;;;7.57;2.72;;;22.80;99.90;;;;;;4987657;28;20219;-81
2022/05/31 12:01:47;;;;;;;5.60;3.30;;;23.00;99.90;;;;;;4987605;28;20241;-81
2022/05/31 12:04:21;;;;;;;4.75;2.20;;;22.60;99.90;;;;;;4988423;28;20199;-82
2022/05/31 12:06:51;;;;;;;4.10;1.80;;;22.10;99.90;;;;;;4987438;28;20200;-80
2022/05/31 12:09:25;;;;;;;2.97;1.42;;;21.80;99.90;;;;;;4988020;28;20250;-80
2022/05/31 12:11:58;;;;;;;3.67;1.30;;;21.80;99.90;;;;;;4987710;28;20208;-81
2022/05/31 12:14:26;;;;;;;1.70;1.30;;;21.80;99.90;;;;;;4987815;28;20228;-80
2022/05/31 12:16:55;;;;;;;4.28;1.60;;;21.80;99.90;;;;;;4989164;28;20218;-84
2022/05/31 12:19:31;;;;;;;1.73;1.38;;;21.80;99.90;;;;;;4988450;28;20884;-81
2022/05/31 12:22:08;;;;;;;2.38;1.42;;;21.80;99.90;;;;;;4988334;28;20220;-82
2022/05/31 12:24:41;;;;;;;2.75;1.48;;;21.80;99.90;;;;;;4988881;28;20865;-81
2022/05/31 12:27:14;;;;;;;3.28;1.10;;;21.70;99.90;;;;;;4987446;28;20214;-82
2022/05/31 12:29:45;;;;;;;2.53;1.20;;;21.50;99.90;;;;;;4988737;28;20200;-82
2022/05/31 12:32:40;;;;;;;2.20;1.08;;;21.60;99.90;;;;;;4988282;28;20556;-81
2022/05/31 12:35:10;;;;;;;2.50;1.38;;;21.60;99.90;;;;;;4987152;28;20255;-80
2022/05/31 12:38:06;;;;;;;1.45;1.00;;;21.70;99.90;;;;;;4988081;28;20218;-80
2022/05/31 12:40:39;;;;;;;2.63;1.17;;;21.80;99.90;;;;;;4996240;23;20204;-81
2022/05/31 12:43:08;;;;;;;2.83;1.30;;;21.80;99.90;;;;;;4987393;28;20215;-79
2022/05/31 12:45:41;;;;;;;2.22;1.20;;;21.90;99.90;;;;;;4988409;28;20294;-85
2022/05/31 12:48:20;;;;;;;2.63;1.10;;;21.90;99.90;;;;;;4984933;28;20212;-81
2022/05/31 12:51:07;;;;;;;2.25;0.75;;;22.00;99.90;;;;;;4985510;28;20821;-81
2022/05/31 12:54:11;;;;;;;1.92;1.00;;;22.10;99.90;;;;;;4985359;28;20208;-83
2022/05/31 12:56:53;;;;;;;1.67;1.20;;;22.30;99.90;;;;;;4986434;28;20210;-82
2022/05/31 12:59:42;;;;;;;2.58;1.20;;;22.60;99.90;;;;;;4987125;28;20206;-81
2022/05/31 13:02:37;;;;;;;2.17;1.48;;;22.90;99.90;;;;;;4987641;28;20200;-81
2022/05/31 13:05:38;;;;;;;1.15;0.90;;;23.20;99.90;;;;;;4986333;28;20595;-80
2022/05/31 13:08:16;;;;;;;2.47;1.38;;;23.10;99.90;;;;;;4986993;28;20207;-81
2022/05/31 13:19:37;;;;;;;3.30;1.20;;;22.60;99.90;;;;;;4987567;28;20319;-82
2022/05/31 13:22:10;;;;;;;2.15;1.13;;;22.60;99.90;;;;;;4985790;28;20231;-81
2022/05/31 13:24:44;;;;;;;2.05;1.27;;;22.50;99.90;;;;;;4985858;28;20216;-81
2022/05/31 13:27:12;;;;;;;1.80;1.10;;;22.50;99.90;;;;;;4986153;28;20962;-80
2022/05/31 13:29:39;;;;;;;4.13;1.42;;;22.10;99.90;;;;;;4986794;28;20622;-80
2022/05/31 13:32:12;;;;;;;1.30;0.85;;;22.00;99.90;;;;;;4985626;28;20642;-80
2022/05/31 13:34:43;;;;;;;2.35;1.15;;;21.90;99.90;;;;;;4986830;28;20691;-83
2022/05/31 13:37:19;;;;;;;4.47;1.73;;;21.80;99.90;;;;;;4986284;28;20530;-81
2022/05/31 13:39:48;;;;;;;2.92;1.98;;;21.80;99.90;;;;;;4986132;28;20258;-81